Time;durP1;ratioP1;P1;durP2;ratioP2;P2;SDS_P1;SDS_P2;PMS_P1;PMS_P2;Temp;Humidity;BMP_temperature;BMP_pressure;BME280_temperature;BME280_humidity;BME280_pressure;Samples;Min_cycle;Max_cycle;Signal;HPM_P1;HPM_P2
2021/12/09 00:00:52;;;;;;;7.80;3.08;;;5.00;80.70;;;;;;5025153;28;20262;-86
2021/12/09 00:03:19;;;;;;;9.15;3.33;;;5.00;80.80;;;;;;5021818;28;20518;-86
2021/12/09 00:05:46;;;;;;;5.70;3.20;;;5.00;81.00;;;;;;5017546;28;20214;-85
2021/12/09 00:08:13;;;;;;;4.25;3.05;;;5.00;81.00;;;;;;5018246;28;20254;-86
2021/12/09 00:10:39;;;;;;;8.23;4.10;;;5.00;81.10;;;;;;5016908;28;20186;-86
2021/12/09 00:13:06;;;;;;;23.00;4.30;;;5.00;81.20;;;;;;5015888;28;20228;-86
2021/12/09 00:15:32;;;;;;;7.30;3.00;;;4.90;81.20;;;;;;5017830;28;20269;-86
2021/12/09 00:17:57;;;;;;;6.72;3.30;;;4.90;81.70;;;;;;5016945;28;20204;-86
2021/12/09 00:20:24;;;;;;;6.27;3.60;;;5.10;81.80;;;;;;5016599;28;20208;-86
2021/12/09 00:22:49;;;;;;;3.42;2.70;;;4.90;81.40;;;;;;5035657;28;20265;-86
2021/12/09 00:25:15;;;;;;;8.30;3.60;;;4.70;81.80;;;;;;5036822;28;20271;-86
2021/12/09 00:27:42;;;;;;;7.07;4.30;;;4.60;82.20;;;;;;5038793;28;20387;-86
2021/12/09 00:30:10;;;;;;;7.22;3.25;;;4.50;82.60;;;;;;5051972;28;20173;-85
2021/12/09 00:32:37;;;;;;;6.25;3.80;;;4.50;82.70;;;;;;5053955;28;20181;-85
2021/12/09 00:35:04;;;;;;;9.13;3.10;;;4.60;82.60;;;;;;5039065;28;20202;-86
2021/12/09 00:37:34;;;;;;;6.60;3.15;;;4.60;82.50;;;;;;5056305;28;20193;-86
2021/12/09 00:40:00;;;;;;;6.70;3.55;;;4.90;82.70;;;;;;5056100;28;20166;-86
2021/12/09 00:42:26;;;;;;;10.57;4.13;;;5.00;82.20;;;;;;5055810;28;20284;-86
2021/12/09 00:44:53;;;;;;;14.38;3.70;;;5.10;81.60;;;;;;5054253;28;20436;-86
2021/12/09 00:47:21;;;;;;;4.55;3.45;;;4.80;81.30;;;;;;5051883;28;20213;-86
2021/12/09 00:49:49;;;;;;;9.82;3.40;;;4.70;81.60;;;;;;5053205;28;20173;-86
2021/12/09 00:52:16;;;;;;;4.65;3.15;;;4.70;81.80;;;;;;5054331;28;20182;-85
2021/12/09 00:54:42;;;;;;;8.90;3.53;;;4.80;81.70;;;;;;5034694;28;20191;-86
2021/12/09 00:57:11;;;;;;;11.13;4.25;;;4.70;81.80;;;;;;5015732;28;20278;-86
2021/12/09 00:59:37;;;;;;;10.55;3.45;;;4.80;81.70;;;;;;5015175;28;20186;-86
2021/12/09 01:02:03;;;;;;;5.50;4.93;;;4.70;81.90;;;;;;5015482;28;20186;-86
2021/12/09 01:04:29;;;;;;;10.65;3.22;;;4.70;82.00;;;;;;5030189;28;20206;-86
2021/12/09 01:06:54;;;;;;;6.80;3.07;;;4.90;82.30;;;;;;5033836;28;20281;-86
2021/12/09 01:09:20;;;;;;;9.73;3.23;;;4.90;82.00;;;;;;5034766;28;20197;-86
2021/12/09 01:11:46;;;;;;;5.28;2.80;;;4.80;81.50;;;;;;5035425;28;20653;-86
2021/12/09 01:14:12;;;;;;;15.87;3.20;;;5.00;81.50;;;;;;5034493;28;20198;-86
2021/12/09 01:16:38;;;;;;;10.37;3.27;;;5.00;81.40;;;;;;5033741;28;20421;-86
2021/12/09 01:19:04;;;;;;;6.33;2.93;;;5.10;81.10;;;;;;5034786;28;20424;-86
2021/12/09 01:21:30;;;;;;;9.73;3.13;;;5.20;80.80;;;;;;5034869;28;20826;-86
2021/12/09 01:23:55;;;;;;;6.17;3.83;;;5.20;80.80;;;;;;5033532;28;20202;-86
2021/12/09 01:26:23;;;;;;;5.73;3.40;;;5.20;80.10;;;;;;5033621;28;20209;-86
2021/12/09 01:28:56;;;;;;;9.93;3.40;;;5.30;80.00;;;;;;5034846;28;20170;-86
2021/12/09 01:31:24;;;;;;;7.72;3.75;;;4.90;79.70;;;;;;5018068;28;20189;-86
2021/12/09 01:33:52;;;;;;;9.90;2.58;;;4.80;80.20;;;;;;5034477;28;20193;-86
2021/12/09 01:36:18;;;;;;;12.40;3.55;;;4.90;80.40;;;;;;5033108;28;20182;-86
2021/12/09 01:38:44;;;;;;;7.97;4.55;;;4.70;80.60;;;;;;5035522;28;20197;-86
2021/12/09 01:41:09;;;;;;;9.20;3.53;;;4.80;80.70;;;;;;5034400;28;20217;-86
2021/12/09 01:43:37;;;;;;;7.63;3.00;;;4.80;80.60;;;;;;5033506;28;20184;-86
2021/12/09 01:46:08;;;;;;;5.72;2.50;;;5.00;80.70;;;;;;5034858;28;20289;-85
2021/12/09 01:48:35;;;;;;;6.93;2.90;;;5.10;80.70;;;;;;5033621;28;20760;-86
2021/12/09 01:51:01;;;;;;;10.45;3.38;;;5.10;80.60;;;;;;5033596;28;20232;-85
2021/12/09 01:53:26;;;;;;;6.67;2.60;;;5.20;80.30;;;;;;5021754;28;20178;-86
2021/12/09 01:55:55;;;;;;;17.97;2.97;;;5.20;80.00;;;;;;5013529;28;20417;-86
2021/12/09 01:58:20;;;;;;;7.78;2.65;;;5.20;79.80;;;;;;5015049;28;20217;-85
2021/12/09 02:00:46;;;;;;;15.63;3.43;;;5.20;79.80;;;;;;5014762;28;20182;-86
2021/12/09 02:03:12;;;;;;;10.33;2.77;;;5.20;79.60;;;;;;5014210;28;20413;-85
2021/12/09 02:05:41;;;;;;;7.47;2.90;;;5.20;79.60;;;;;;5013320;28;20304;-86
2021/12/09 02:08:08;;;;;;;10.75;3.08;;;5.20;79.60;;;;;;5030613;28;20181;-85
2021/12/09 02:10:34;;;;;;;14.70;2.95;;;5.20;79.60;;;;;;5034721;28;20185;-85
2021/12/09 02:13:00;;;;;;;7.17;2.73;;;5.20;79.40;;;;;;5016814;28;20217;-85
2021/12/09 02:15:26;;;;;;;6.15;2.80;;;5.20;79.40;;;;;;5036785;28;20433;-85
2021/12/09 02:17:53;;;;;;;7.80;2.50;;;5.10;79.10;;;;;;5037323;28;20181;-85
2021/12/09 02:20:19;;;;;;;7.30;2.95;;;5.00;79.00;;;;;;5038874;28;20537;-85
2021/12/09 02:22:47;;;;;;;10.33;2.70;;;5.00;79.00;;;;;;5034258;28;20188;-86
2021/12/09 02:25:15;;;;;;;9.43;3.28;;;4.90;79.40;;;;;;5016027;28;20794;-85
2021/12/09 02:27:42;;;;;;;5.60;2.85;;;4.90;79.60;;;;;;5016840;28;20182;-85
2021/12/09 02:30:08;;;;;;;5.32;2.28;;;4.90;79.50;;;;;;5017326;28;20186;-85
2021/12/09 02:32:34;;;;;;;9.93;3.70;;;4.80;79.60;;;;;;5018423;28;20210;-86
2021/12/09 02:35:00;;;;;;;7.43;2.90;;;4.90;79.80;;;;;;5016555;28;20221;-86
2021/12/09 02:37:25;;;;;;;6.20;2.40;;;4.90;79.80;;;;;;5018089;28;20417;-85
2021/12/09 02:39:51;;;;;;;3.93;2.30;;;4.90;79.90;;;;;;5016526;28;20183;-86
2021/12/09 02:42:17;;;;;;;2.13;1.90;;;4.90;80.00;;;;;;5016621;28;20317;-86
2021/12/09 02:44:45;;;;;;;3.77;2.33;;;5.00;79.80;;;;;;5015996;28;20198;-85
2021/12/09 02:47:11;;;;;;;14.57;3.00;;;5.10;79.70;;;;;;5025764;28;20448;-86
2021/12/09 02:49:37;;;;;;;4.63;2.30;;;5.10;79.60;;;;;;5036393;28;20231;-86
2021/12/09 02:52:04;;;;;;;9.33;2.97;;;5.20;79.20;;;;;;5038151;28;20641;-86
2021/12/09 02:54:30;;;;;;;2.85;1.88;;;5.20;79.00;;;;;;5030143;28;20221;-86
2021/12/09 02:57:01;;;;;;;13.55;2.95;;;5.20;78.90;;;;;;4999869;28;20194;-87
2021/12/09 02:59:27;;;;;;;6.72;2.53;;;5.20;78.70;;;;;;5015813;28;20634;-86
2021/12/09 03:04:20;;;;;;;6.18;2.30;;;5.20;79.10;;;;;;5026991;28;20447;-85
2021/12/09 03:06:48;;;;;;;8.10;2.15;;;5.20;79.00;;;;;;5037282;28;20202;-85
2021/12/09 03:09:16;;;;;;;12.45;3.92;;;5.10;78.80;;;;;;5036703;28;20184;-85
2021/12/09 03:11:53;;;;;;;12.98;3.17;;;5.00;78.80;;;;;;5037048;28;20193;-85
2021/12/09 03:14:18;;;;;;;12.07;2.00;;;5.10;79.10;;;;;;5035760;28;20208;-85
2021/12/09 03:16:44;;;;;;;8.00;2.90;;;5.00;78.80;;;;;;5035985;28;20197;-87
2021/12/09 03:19:10;;;;;;;15.27;2.70;;;5.10;79.00;;;;;;5035399;28;20429;-87
2021/12/09 03:21:40;;;;;;;13.30;2.45;;;5.00;78.80;;;;;;5033285;28;20190;-87
2021/12/09 03:24:08;;;;;;;8.85;2.70;;;4.80;78.70;;;;;;4998994;28;20206;-87
2021/12/09 03:26:39;;;;;;;5.03;2.42;;;5.00;79.10;;;;;;5015474;28;20253;-86
2021/12/09 03:29:09;;;;;;;3.55;1.92;;;5.10;79.30;;;;;;5015093;28;20313;-86
2021/12/09 03:31:40;;;;;;;3.92;1.92;;;5.00;79.10;;;;;;5015410;28;20269;-86
2021/12/09 03:34:07;;;;;;;5.43;2.50;;;5.00;79.20;;;;;;5022435;28;20612;-85
2021/12/09 03:36:33;;;;;;;5.03;2.42;;;5.10;79.10;;;;;;5036330;28;20521;-86
2021/12/09 03:39:01;;;;;;;8.63;2.60;;;5.10;79.10;;;;;;5035894;28;20182;-86
2021/12/09 03:41:27;;;;;;;5.43;2.00;;;5.10;79.20;;;;;;5036085;28;20178;-86
2021/12/09 03:43:53;;;;;;;16.93;3.60;;;5.10;78.90;;;;;;5041672;28;20213;-86
2021/12/09 03:46:19;;;;;;;7.97;2.55;;;5.10;78.90;;;;;;5044630;28;20236;-85
2021/12/09 03:48:46;;;;;;;12.23;2.95;;;4.90;79.00;;;;;;5029812;28;20190;-86
2021/12/09 03:51:11;;;;;;;4.30;2.78;;;4.80;79.60;;;;;;5031995;28;20202;-87
2021/12/09 03:53:37;;;;;;;10.60;2.03;;;4.80;79.80;;;;;;5035288;28;20183;-86
2021/12/09 03:56:03;;;;;;;7.80;2.23;;;4.90;80.10;;;;;;5031500;28;20182;-85
2021/12/09 03:58:29;;;;;;;4.20;2.60;;;4.90;79.90;;;;;;5028039;28;20414;-85
2021/12/09 04:00:55;;;;;;;3.83;2.20;;;5.00;79.70;;;;;;5024714;28;20190;-85
2021/12/09 04:03:21;;;;;;;3.90;2.03;;;5.10;79.60;;;;;;5014559;28;20421;-86
2021/12/09 04:05:48;;;;;;;4.03;2.85;;;5.10;79.30;;;;;;5018798;28;20456;-86
2021/12/09 04:08:15;;;;;;;15.05;3.03;;;5.10;79.20;;;;;;5016125;28;20178;-86
2021/12/09 04:10:41;;;;;;;4.07;2.38;;;5.10;79.10;;;;;;5021059;28;20372;-85
2021/12/09 04:13:07;;;;;;;9.35;3.28;;;4.90;79.00;;;;;;5024948;28;20259;-85
2021/12/09 04:15:33;;;;;;;10.10;3.30;;;4.90;79.30;;;;;;5040625;28;20248;-86
2021/12/09 04:17:59;;;;;;;15.68;3.53;;;4.90;79.50;;;;;;5039373;28;21038;-86
2021/12/09 04:20:25;;;;;;;3.43;3.03;;;5.00;79.50;;;;;;5029585;28;20230;-85
2021/12/09 04:22:51;;;;;;;9.00;2.75;;;5.10;79.50;;;;;;5021328;28;20426;-85
2021/12/09 04:25:18;;;;;;;9.80;3.90;;;5.10;79.40;;;;;;5022302;28;20226;-85
2021/12/09 04:27:46;;;;;;;8.25;2.42;;;5.00;78.90;;;;;;5018084;28;20422;-85
2021/12/09 04:30:13;;;;;;;10.88;3.78;;;5.00;79.20;;;;;;5040803;28;20174;-85
2021/12/09 04:32:39;;;;;;;6.88;2.78;;;4.90;79.40;;;;;;5057338;28;20177;-86
2021/12/09 04:35:07;;;;;;;8.45;3.95;;;4.60;79.70;;;;;;5051472;28;20202;-85
2021/12/09 04:37:33;;;;;;;10.57;2.63;;;4.50;80.20;;;;;;5048597;28;20177;-85
2021/12/09 04:40:00;;;;;;;12.00;2.83;;;4.40;80.60;;;;;;5041555;28;20236;-86
2021/12/09 04:42:27;;;;;;;8.75;4.10;;;4.50;81.10;;;;;;5035684;28;20420;-86
2021/12/09 04:44:55;;;;;;;7.55;3.28;;;4.60;81.00;;;;;;5034288;28;20202;-86
2021/12/09 04:47:21;;;;;;;7.63;3.90;;;4.60;80.90;;;;;;5033928;28;20205;-86
2021/12/09 04:49:47;;;;;;;8.88;3.78;;;4.40;81.10;;;;;;5033700;28;20208;-86
2021/12/09 04:52:13;;;;;;;6.30;3.23;;;4.30;81.40;;;;;;5033239;28;20551;-86
2021/12/09 04:54:41;;;;;;;9.15;3.25;;;4.30;81.90;;;;;;5032868;28;20436;-86
2021/12/09 04:57:08;;;;;;;7.57;3.28;;;4.30;81.90;;;;;;5035152;28;20255;-86
2021/12/09 04:59:35;;;;;;;12.07;3.85;;;4.40;82.20;;;;;;5033331;28;20269;-86
2021/12/09 05:02:01;;;;;;;7.30;3.20;;;4.30;82.20;;;;;;5033411;28;20188;-86
2021/12/09 05:04:28;;;;;;;12.57;3.78;;;4.50;82.40;;;;;;5033332;28;20204;-86
2021/12/09 05:06:54;;;;;;;7.07;3.30;;;4.50;82.10;;;;;;5033488;28;20202;-86
2021/12/09 05:09:20;;;;;;;8.85;3.88;;;4.60;81.80;;;;;;5025915;28;20540;-86
2021/12/09 05:14:13;;;;;;;12.13;4.15;;;4.80;81.30;;;;;;5034905;28;20415;-86
2021/12/09 05:16:39;;;;;;;8.73;3.53;;;4.70;80.70;;;;;;5032836;28;20190;-86
2021/12/09 05:19:05;;;;;;;4.80;2.80;;;4.40;80.70;;;;;;5033632;28;20178;-86
2021/12/09 05:21:37;;;;;;;20.02;3.92;;;4.40;81.00;;;;;;5034514;28;20206;-86
2021/12/09 05:24:15;;;;;;;7.00;3.80;;;4.30;81.60;;;;;;5015766;28;20202;-86
2021/12/09 05:26:48;;;;;;;7.78;3.28;;;4.30;82.00;;;;;;5018042;28;20217;-86
2021/12/09 05:29:16;;;;;;;10.90;3.20;;;4.30;82.10;;;;;;5014545;28;20171;-86
2021/12/09 05:34:26;;;;;;;10.32;3.00;;;4.40;81.90;;;;;;5014700;28;20194;-87
2021/12/09 05:36:52;;;;;;;7.60;3.53;;;4.60;81.90;;;;;;5014138;28;20551;-86
2021/12/09 05:39:18;;;;;;;6.97;3.07;;;4.70;81.90;;;;;;5013493;28;20797;-86
2021/12/09 05:41:47;;;;;;;13.77;4.40;;;4.50;81.70;;;;;;5016194;28;20438;-85
2021/12/09 05:44:14;;;;;;;6.03;2.90;;;4.40;81.80;;;;;;5014048;28;20242;-85
2021/12/09 05:46:45;;;;;;;11.95;3.60;;;4.60;82.40;;;;;;5014516;28;20209;-85
2021/12/09 05:49:13;;;;;;;6.38;3.17;;;4.70;81.70;;;;;;5014467;28;20604;-86
2021/12/09 05:51:40;;;;;;;3.35;2.60;;;4.90;81.40;;;;;;5018184;28;20611;-86
2021/12/09 05:54:06;;;;;;;12.13;3.40;;;5.00;81.00;;;;;;5019456;28;20194;-86
2021/12/09 05:56:32;;;;;;;8.38;3.88;;;4.90;80.80;;;;;;5023981;28;20261;-85
2021/12/09 05:58:59;;;;;;;5.68;3.13;;;5.00;80.70;;;;;;5012267;28;20245;-85
2021/12/09 06:01:25;;;;;;;11.15;3.70;;;4.90;80.50;;;;;;5030423;28;20212;-86
2021/12/09 06:03:51;;;;;;;9.05;3.47;;;5.00;80.50;;;;;;5038338;28;20285;-86
2021/12/09 06:06:17;;;;;;;9.83;3.00;;;5.10;80.50;;;;;;5038812;28;20209;-86
2021/12/09 06:08:42;;;;;;;10.70;2.95;;;5.00;80.20;;;;;;5037639;28;20943;-86
2021/12/09 06:11:11;;;;;;;12.00;3.60;;;5.10;80.20;;;;;;5037527;28;20213;-86
2021/12/09 06:13:39;;;;;;;8.90;3.40;;;5.10;80.30;;;;;;5039188;28;20424;-86
2021/12/09 06:16:07;;;;;;;6.53;2.55;;;5.10;80.40;;;;;;5036870;28;20269;-86
2021/12/09 06:18:33;;;;;;;10.85;3.13;;;5.10;80.40;;;;;;5039142;28;20542;-86
2021/12/09 06:20:59;;;;;;;8.30;3.63;;;4.90;80.40;;;;;;5037510;28;20613;-86
2021/12/09 06:23:25;;;;;;;4.10;2.70;;;4.90;80.90;;;;;;5036470;28;20201;-86
2021/12/09 06:25:50;;;;;;;5.57;2.67;;;5.00;80.80;;;;;;5021214;28;20806;-86
2021/12/09 06:28:18;;;;;;;6.23;3.57;;;5.00;80.70;;;;;;5037006;28;20177;-86
2021/12/09 06:30:46;;;;;;;5.50;3.33;;;4.90;80.80;;;;;;5038693;28;20185;-86
2021/12/09 06:33:13;;;;;;;7.57;3.00;;;4.90;80.90;;;;;;5031075;28;20634;-85
2021/12/09 06:35:40;;;;;;;7.00;3.22;;;5.00;80.90;;;;;;5018178;28;20214;-85
2021/12/09 06:38:14;;;;;;;6.10;3.50;;;4.80;81.10;;;;;;5020410;28;20183;-85
2021/12/09 06:40:40;;;;;;;12.13;3.70;;;4.80;81.60;;;;;;5020595;28;20175;-85
2021/12/09 06:43:05;;;;;;;8.30;3.37;;;4.80;82.00;;;;;;5019380;28;20244;-85
2021/12/09 06:45:32;;;;;;;15.70;3.60;;;4.70;81.90;;;;;;5019452;28;20461;-85
2021/12/09 06:47:58;;;;;;;10.38;3.40;;;4.70;82.20;;;;;;5017602;28;20611;-85
2021/12/09 06:50:24;;;;;;;7.50;3.53;;;4.70;82.30;;;;;;5023767;28;20182;-85
2021/12/09 06:52:51;;;;;;;5.32;3.08;;;4.90;82.40;;;;;;5041083;28;20926;-85
2021/12/09 06:55:18;;;;;;;5.00;3.17;;;5.10;82.10;;;;;;5026459;28;20280;-86
2021/12/09 06:57:46;;;;;;;10.13;3.30;;;5.10;81.90;;;;;;5020102;28;20178;-87
2021/12/09 07:00:16;;;;;;;16.08;3.15;;;5.10;81.60;;;;;;5023094;28;20182;-84
2021/12/09 07:02:44;;;;;;;10.50;3.90;;;5.20;81.40;;;;;;5028246;28;20174;-85
2021/12/09 07:05:10;;;;;;;8.38;3.65;;;5.20;80.90;;;;;;5039867;28;20228;-85
2021/12/09 07:07:37;;;;;;;5.60;2.88;;;5.10;80.80;;;;;;5045835;28;20272;-84
2021/12/09 07:10:05;;;;;;;12.43;3.88;;;4.90;80.80;;;;;;5045043;28;20269;-84
2021/12/09 07:12:34;;;;;;;7.40;3.10;;;4.80;81.30;;;;;;5043746;28;20186;-85
2021/12/09 07:15:00;;;;;;;10.55;3.00;;;4.90;81.60;;;;;;5045715;28;20263;-81
2021/12/09 07:17:26;;;;;;;10.30;3.70;;;5.00;81.60;;;;;;5024417;28;20540;-81
2021/12/09 07:19:52;;;;;;;9.83;3.73;;;5.20;81.60;;;;;;5020832;28;20174;-81
2021/12/09 07:22:17;;;;;;;5.03;2.70;;;5.10;81.40;;;;;;5019560;28;20174;-82
2021/12/09 07:24:43;;;;;;;4.47;3.40;;;5.10;81.40;;;;;;5024903;28;20218;-80
2021/12/09 07:27:09;;;;;;;10.57;4.03;;;5.10;81.30;;;;;;5029791;28;20484;-79
2021/12/09 07:29:35;;;;;;;12.00;4.37;;;5.10;81.20;;;;;;5029593;28;20507;-81
2021/12/09 07:32:01;;;;;;;7.80;3.10;;;5.00;81.20;;;;;;5038136;28;20409;-81
2021/12/09 07:34:26;;;;;;;8.43;3.20;;;5.20;81.50;;;;;;5022858;28;20268;-80
2021/12/09 07:36:52;;;;;;;10.07;4.70;;;5.10;81.10;;;;;;5019478;28;20178;-81
2021/12/09 07:39:18;;;;;;;12.80;3.27;;;5.10;81.20;;;;;;5019413;28;20583;-81
2021/12/09 07:41:46;;;;;;;8.40;3.40;;;5.20;81.40;;;;;;5023800;28;20208;-80
2021/12/09 07:44:13;;;;;;;16.73;3.38;;;5.10;81.40;;;;;;5039825;28;20197;-81
2021/12/09 07:46:42;;;;;;;8.30;2.63;;;5.40;81.40;;;;;;5038183;28;20224;-81
2021/12/09 07:49:08;;;;;;;14.18;4.50;;;5.40;81.10;;;;;;5039686;28;20235;-81
2021/12/09 07:51:34;;;;;;;12.33;3.27;;;5.40;80.90;;;;;;5037470;28;20186;-81
2021/12/09 07:54:01;;;;;;;7.03;3.60;;;5.40;80.80;;;;;;5035341;28;20204;-81
2021/12/09 07:56:27;;;;;;;11.68;4.25;;;5.30;80.90;;;;;;5019946;28;20175;-80
2021/12/09 07:58:52;;;;;;;9.10;3.50;;;5.60;81.10;;;;;;5025457;28;20209;-81
2021/12/09 08:01:18;;;;;;;17.73;4.60;;;5.60;80.90;;;;;;5038340;28;20204;-81
2021/12/09 08:03:44;;;;;;;11.70;4.53;;;5.80;80.70;;;;;;5021628;28;20190;-81
2021/12/09 08:06:10;;;;;;;10.15;3.60;;;5.70;80.50;;;;;;5019710;28;20665;-81
2021/12/09 08:08:36;;;;;;;12.82;5.35;;;5.80;80.50;;;;;;5018595;28;20205;-81
2021/12/09 08:11:02;;;;;;;8.27;4.93;;;5.40;80.30;;;;;;5020189;28;20174;-80
2021/12/09 08:13:27;;;;;;;7.67;3.53;;;5.50;80.90;;;;;;5024427;28;20170;-80
2021/12/09 08:15:54;;;;;;;10.90;4.97;;;5.50;81.10;;;;;;5039502;28;20653;-81
2021/12/09 08:20:50;;;;;;;9.80;6.03;;;5.90;81.30;;;;;;5039301;28;20259;-80
2021/12/09 08:23:16;;;;;;;10.02;4.70;;;5.90;81.20;;;;;;5038212;28;20416;-81
2021/12/09 08:25:43;;;;;;;9.27;4.57;;;6.00;81.00;;;;;;5038517;28;20209;-80
2021/12/09 08:28:09;;;;;;;11.43;4.68;;;6.10;80.90;;;;;;5038643;28;20445;-81
2021/12/09 08:30:37;;;;;;;13.60;4.78;;;6.00;80.50;;;;;;5037144;28;20177;-81
2021/12/09 08:33:05;;;;;;;22.52;5.88;;;6.10;80.80;;;;;;5030369;28;20244;-81
2021/12/09 08:35:33;;;;;;;11.38;5.50;;;6.20;80.80;;;;;;5018478;28;20198;-80
2021/12/09 08:37:59;;;;;;;7.47;4.22;;;6.10;80.70;;;;;;5019660;28;20163;-80
2021/12/09 08:40:26;;;;;;;9.10;5.30;;;6.30;80.90;;;;;;5017798;28;20185;-80
2021/12/09 08:42:53;;;;;;;10.48;5.57;;;6.30;80.80;;;;;;5018996;28;20418;-81
2021/12/09 08:45:21;;;;;;;8.48;5.35;;;6.30;80.80;;;;;;5020904;28;20198;-80
2021/12/09 08:47:48;;;;;;;7.07;5.40;;;6.10;80.80;;;;;;5036782;28;20174;-81
2021/12/09 08:50:20;;;;;;;11.65;5.50;;;6.10;81.30;;;;;;5037147;28;20550;-81
2021/12/09 08:52:47;;;;;;;7.40;5.00;;;6.10;81.30;;;;;;5038026;28;20224;-81
2021/12/09 08:55:13;;;;;;;8.02;5.20;;;6.40;81.50;;;;;;5038613;28;20679;-81
2021/12/09 08:57:39;;;;;;;14.48;5.18;;;6.10;81.10;;;;;;5037104;28;20605;-81
2021/12/09 09:00:09;;;;;;;7.93;4.57;;;6.20;81.40;;;;;;5036782;28;20224;-81
2021/12/09 09:02:36;;;;;;;10.10;5.18;;;6.10;81.30;;;;;;5038103;28;20186;-81
2021/12/09 09:05:08;;;;;;;10.48;5.97;;;6.20;82.30;;;;;;5035714;28;20202;-80
2021/12/09 09:07:34;;;;;;;8.95;5.50;;;6.10;81.50;;;;;;5037044;28;20202;-80
2021/12/09 09:09:59;;;;;;;15.53;5.80;;;6.20;81.60;;;;;;5037859;28;20181;-80
2021/12/09 09:12:28;;;;;;;13.43;5.70;;;6.20;81.80;;;;;;5036606;28;20427;-81
2021/12/09 09:14:54;;;;;;;8.63;5.60;;;6.20;81.90;;;;;;5036162;28;20756;-81
2021/12/09 09:17:19;;;;;;;8.20;4.87;;;6.40;81.90;;;;;;5037192;28;20194;-81
2021/12/09 09:19:45;;;;;;;7.80;6.17;;;6.40;81.60;;;;;;5037797;28;20417;-81
2021/12/09 09:22:13;;;;;;;19.13;6.43;;;6.60;81.40;;;;;;5037211;28;20421;-81
2021/12/09 09:24:39;;;;;;;6.00;4.70;;;6.50;80.90;;;;;;5037633;28;20676;-81
2021/12/09 09:27:06;;;;;;;8.57;4.65;;;6.50;80.90;;;;;;5037266;28;20344;-80
2021/12/09 09:29:34;;;;;;;7.10;4.60;;;6.40;80.80;;;;;;5039032;28;20645;-80
2021/12/09 09:32:00;;;;;;;8.05;4.97;;;6.30;81.10;;;;;;5043934;28;20236;-83
2021/12/09 09:34:26;;;;;;;5.88;5.05;;;6.40;81.20;;;;;;5054486;28;20201;-80
2021/12/09 09:36:51;;;;;;;7.00;5.68;;;6.50;81.00;;;;;;5053808;28;20217;-80
2021/12/09 09:39:18;;;;;;;8.33;5.53;;;6.70;80.90;;;;;;5050127;28;20174;-81
2021/12/09 09:41:55;;;;;;;9.23;5.55;;;6.70;80.40;;;;;;5037857;28;20259;-81
2021/12/09 09:44:28;;;;;;;13.98;5.53;;;6.70;80.40;;;;;;5036358;28;20197;-81
2021/12/09 09:46:57;;;;;;;12.73;7.10;;;6.70;80.00;;;;;;5036072;28;20757;-81
2021/12/09 09:49:24;;;;;;;10.50;5.93;;;6.70;80.20;;;;;;5037432;28;20170;-81
2021/12/09 09:51:50;;;;;;;9.80;6.03;;;6.60;80.20;;;;;;5035851;28;20173;-81
2021/12/09 09:54:17;;;;;;;6.83;5.20;;;6.70;80.40;;;;;;5030633;28;20206;-81
2021/12/09 09:56:47;;;;;;;9.43;6.32;;;6.40;80.40;;;;;;5014507;28;20849;-81
2021/12/09 09:59:17;;;;;;;9.55;7.28;;;6.70;80.80;;;;;;5001541;28;20175;-80
2021/12/09 10:01:45;;;;;;;8.32;5.13;;;6.90;81.60;;;;;;5018831;28;20170;-81
2021/12/09 10:04:20;;;;;;;7.28;5.95;;;6.70;80.40;;;;;;5003058;28;20240;-81
2021/12/09 10:06:47;;;;;;;6.68;5.95;;;6.90;80.60;;;;;;5022666;28;20214;-82
2021/12/09 10:09:16;;;;;;;16.90;6.03;;;7.00;80.00;;;;;;5023293;28;20199;-81
2021/12/09 10:11:42;;;;;;;16.13;6.68;;;6.70;80.10;;;;;;5024672;28;20181;-81
2021/12/09 10:14:19;;;;;;;7.63;5.60;;;6.80;80.40;;;;;;5035220;28;20252;-81
2021/12/09 10:16:46;;;;;;;11.05;5.70;;;6.80;80.70;;;;;;5039090;28;20657;-81
2021/12/09 10:19:22;;;;;;;8.32;5.35;;;7.00;80.90;;;;;;5035040;28;20280;-82
2021/12/09 10:21:48;;;;;;;6.68;4.75;;;7.00;81.00;;;;;;5038167;28;20216;-81
2021/12/09 10:24:16;;;;;;;6.53;5.28;;;7.00;81.10;;;;;;5035972;28;20241;-81
2021/12/09 10:26:47;;;;;;;7.53;5.55;;;7.00;81.20;;;;;;5035754;28;20693;-81
2021/12/09 10:29:40;;;;;;;8.23;6.05;;;7.10;81.30;;;;;;5032574;28;20179;-80
2021/12/09 10:32:14;;;;;;;13.75;6.35;;;7.20;81.20;;;;;;5017946;28;20526;-81
2021/12/09 10:34:46;;;;;;;11.60;5.72;;;7.20;80.80;;;;;;5056137;28;20197;-82
2021/12/09 10:37:23;;;;;;;8.82;6.10;;;7.10;80.70;;;;;;5060611;28;20168;-81
2021/12/09 10:39:55;;;;;;;10.15;6.25;;;7.20;80.80;;;;;;5059702;28;20181;-82
2021/12/09 10:42:29;;;;;;;8.75;6.80;;;7.20;80.60;;;;;;5059982;28;20184;-81
2021/12/09 10:45:17;;;;;;;9.63;5.57;;;7.40;80.30;;;;;;5058904;28;20796;-80
2021/12/09 10:47:58;;;;;;;16.65;7.22;;;7.30;80.20;;;;;;5061154;28;20731;-81
2021/12/09 10:50:34;;;;;;;9.07;6.38;;;7.50;79.90;;;;;;5059430;28;20161;-81
2021/12/09 10:53:17;;;;;;;6.97;5.85;;;7.40;79.60;;;;;;5060357;28;20218;-80
2021/12/09 10:55:43;;;;;;;7.70;6.00;;;7.50;79.90;;;;;;5044257;28;20233;-80
2021/12/09 10:58:12;;;;;;;7.57;5.75;;;7.60;79.30;;;;;;5038978;28;20201;-80
2021/12/09 11:00:40;;;;;;;8.73;6.43;;;7.70;79.30;;;;;;5039118;28;20185;-81
2021/12/09 11:03:32;;;;;;;8.82;6.05;;;7.90;79.00;;;;;;5033745;28;20194;-81
2021/12/09 11:06:03;;;;;;;10.55;6.68;;;8.00;78.30;;;;;;5021413;28;20191;-81
2021/12/09 11:08:44;;;;;;;8.95;5.93;;;8.10;77.80;;;;;;5021417;28;20198;-81
2021/12/09 11:11:18;;;;;;;17.55;6.30;;;8.10;77.50;;;;;;5036009;28;20653;-81
2021/12/09 11:13:52;;;;;;;8.73;6.75;;;8.00;77.40;;;;;;5038174;28;20272;-81
2021/12/09 11:16:37;;;;;;;10.85;6.40;;;8.10;77.50;;;;;;5040739;28;20158;-81
2021/12/09 11:19:24;;;;;;;9.77;6.32;;;8.00;77.20;;;;;;5039488;28;20255;-81
2021/12/09 11:21:55;;;;;;;18.13;7.95;;;8.00;77.20;;;;;;5039029;28;20389;-81
2021/12/09 11:24:23;;;;;;;9.05;6.30;;;8.10;77.30;;;;;;5039993;28;20213;-81
2021/12/09 11:27:01;;;;;;;10.00;5.32;;;8.30;77.10;;;;;;5040561;28;20732;-82
2021/12/09 11:29:31;;;;;;;15.23;6.47;;;8.30;76.80;;;;;;5032681;28;20638;-81
2021/12/09 11:35:01;;;;;;;12.02;6.50;;;8.40;76.40;;;;;;5020461;28;20198;-82
2021/12/09 11:40:37;;;;;;;12.73;6.70;;;8.10;76.00;;;;;;5021874;28;20208;-82
2021/12/09 11:43:06;;;;;;;10.82;5.85;;;8.10;76.30;;;;;;5019508;28;20178;-83
2021/12/09 11:45:41;;;;;;;9.68;6.35;;;8.20;76.20;;;;;;5035217;28;20238;-81
2021/12/09 11:48:08;;;;;;;10.15;6.65;;;8.30;76.30;;;;;;5019310;28;20548;-81
2021/12/09 11:50:41;;;;;;;15.32;7.38;;;8.20;75.70;;;;;;5019108;28;20186;-82
2021/12/09 11:53:09;;;;;;;13.70;7.07;;;8.20;75.80;;;;;;5023872;28;20169;-81
2021/12/09 11:55:41;;;;;;;18.90;7.18;;;8.30;76.10;;;;;;5021281;28;20689;-83
2021/12/09 11:58:24;;;;;;;10.90;6.50;;;8.40;76.10;;;;;;5020715;28;20559;-82
2021/12/09 12:07:32;;;;;;;18.70;6.72;;;8.60;75.40;;;;;;5022631;28;20209;-84
2021/12/09 12:27:01;;;;;;;11.07;7.22;;;8.80;76.00;;;;;;5026343;28;20204;-83
2021/12/09 12:30:04;;;;;;;14.27;6.80;;;8.70;75.90;;;;;;5025923;28;20190;-82
2021/12/09 12:38:19;;;;;;;16.90;7.82;;;8.70;75.70;;;;;;5019961;28;20652;-84
2021/12/09 12:40:56;;;;;;;15.45;6.00;;;8.80;76.20;;;;;;5019415;28;20193;-81
2021/12/09 12:43:39;;;;;;;11.75;6.32;;;8.80;75.20;;;;;;5016546;28;20216;-81
2021/12/09 12:46:33;;;;;;;14.77;6.43;;;8.70;75.10;;;;;;5019381;28;20194;-83
2021/12/09 12:51:50;;;;;;;15.88;6.80;;;9.00;74.90;;;;;;5018704;28;20171;-83
2021/12/09 12:54:54;;;;;;;17.35;6.90;;;9.00;74.40;;;;;;5028282;28;20235;-83
2021/12/09 12:57:44;;;;;;;15.13;5.90;;;9.00;74.30;;;;;;5035266;28;20493;-83
2021/12/09 13:00:18;;;;;;;24.58;6.93;;;9.00;74.20;;;;;;5021347;28;20221;-83
2021/12/09 13:03:15;;;;;;;13.95;5.82;;;9.00;74.00;;;;;;5028828;28;20201;-82
2021/12/09 13:21:58;;;;;;;14.85;6.03;;;8.90;74.70;;;;;;5019879;28;20201;-83
2021/12/09 13:24:41;;;;;;;15.93;6.25;;;8.90;74.80;;;;;;5036048;28;20692;-82
2021/12/09 13:50:18;;;;;;;8.23;5.32;;;8.90;75.30;;;;;;5020220;28;20198;-83
2021/12/09 13:55:29;;;;;;;10.75;5.07;;;8.90;75.20;;;;;;5029389;28;20202;-84
2021/12/09 13:58:07;;;;;;;14.15;5.90;;;9.00;74.80;;;;;;5023410;28;20637;-84
2021/12/09 14:00:36;;;;;;;12.52;6.43;;;8.80;74.70;;;;;;5024418;28;20194;-82
2021/12/09 14:03:05;;;;;;;8.25;4.85;;;8.80;74.80;;;;;;5035043;28;20190;-84
2021/12/09 14:06:04;;;;;;;13.85;6.22;;;8.80;75.10;;;;;;5024139;28;20514;-82
2021/12/09 14:08:44;;;;;;;9.32;5.03;;;8.90;75.20;;;;;;5026933;28;20228;-84
2021/12/09 14:11:24;;;;;;;12.95;5.60;;;8.80;75.00;;;;;;5020726;28;20154;-83
2021/12/09 14:14:10;;;;;;;18.45;5.68;;;8.80;75.30;;;;;;5023577;28;20293;-83
2021/12/09 14:16:59;;;;;;;27.48;5.65;;;8.70;75.50;;;;;;5037995;28;20324;-81
2021/12/09 14:21:54;;;;;;;15.40;6.25;;;8.70;75.80;;;;;;5039482;28;20638;-83
2021/12/09 14:24:25;;;;;;;14.85;5.82;;;8.70;75.90;;;;;;5030965;28;20209;-82
2021/12/09 14:27:00;;;;;;;17.38;5.38;;;8.70;75.90;;;;;;5034005;28;20202;-83
2021/12/09 14:29:28;;;;;;;13.35;5.35;;;8.70;76.20;;;;;;5043046;28;20178;-83
2021/12/09 14:31:56;;;;;;;9.43;5.22;;;8.70;76.10;;;;;;5040211;28;20388;-82
2021/12/09 14:34:25;;;;;;;12.45;5.00;;;8.70;75.80;;;;;;5053401;28;20204;-83